sensor_id;sensor_type;location;lat;lon;timestamp;P1;durP1;ratioP1;P2;durP2;ratioP2
22250;SDS011;59348;52.158;5.588;2022-11-20T00:01:29;16.98;;;9.75;;
22250;SDS011;59348;52.158;5.588;2022-11-20T00:03:56;20.23;;;9.80;;
22250;SDS011;59348;52.158;5.588;2022-11-20T00:06:24;16.35;;;10.15;;
22250;SDS011;59348;52.158;5.588;2022-11-20T00:08:53;16.38;;;10.38;;
22250;SDS011;59348;52.158;5.588;2022-11-20T00:11:21;17.52;;;10.18;;
22250;SDS011;59348;52.158;5.588;2022-11-20T00:13:49;18.25;;;10.00;;
22250;SDS011;59348;52.158;5.588;2022-11-20T00:16:18;18.10;;;9.95;;
22250;SDS011;59348;52.158;5.588;2022-11-20T00:18:46;17.45;;;10.10;;
22250;SDS011;59348;52.158;5.588;2022-11-20T00:21:14;15.63;;;9.85;;
22250;SDS011;59348;52.158;5.588;2022-11-20T00:23:42;19.42;;;9.50;;
22250;SDS011;59348;52.158;5.588;2022-11-20T00:26:10;18.13;;;9.57;;
22250;SDS011;59348;52.158;5.588;2022-11-20T00:28:38;16.33;;;9.57;;
22250;SDS011;59348;52.158;5.588;2022-11-20T00:31:06;17.08;;;9.27;;
22250;SDS011;59348;52.158;5.588;2022-11-20T00:33:35;16.90;;;9.35;;
22250;SDS011;59348;52.158;5.588;2022-11-20T00:36:03;20.75;;;10.20;;
22250;SDS011;59348;52.158;5.588;2022-11-20T00:38:31;18.02;;;9.48;;
22250;SDS011;59348;52.158;5.588;2022-11-20T00:40:58;18.23;;;10.32;;
22250;SDS011;59348;52.158;5.588;2022-11-20T00:43:26;16.98;;;10.07;;
22250;SDS011;59348;52.158;5.588;2022-11-20T00:45:57;17.45;;;10.25;;
22250;SDS011;59348;52.158;5.588;2022-11-20T00:48:24;16.30;;;9.65;;
22250;SDS011;59348;52.158;5.588;2022-11-20T00:50:53;17.90;;;10.10;;
22250;SDS011;59348;52.158;5.588;2022-11-20T00:53:21;18.38;;;10.85;;
22250;SDS011;59348;52.158;5.588;2022-11-20T00:55:52;18.52;;;10.25;;
22250;SDS011;59348;52.158;5.588;2022-11-20T00:58:20;17.25;;;10.13;;
22250;SDS011;59348;52.158;5.588;2022-11-20T01:00:47;16.88;;;9.60;;
22250;SDS011;59348;52.158;5.588;2022-11-20T01:03:15;18.60;;;9.68;;
22250;SDS011;59348;52.158;5.588;2022-11-20T01:05:43;14.45;;;8.88;;
22250;SDS011;59348;52.158;5.588;2022-11-20T01:08:11;18.30;;;9.60;;
22250;SDS011;59348;52.158;5.588;2022-11-20T01:10:39;17.15;;;9.65;;
22250;SDS011;59348;52.158;5.588;2022-11-20T01:13:06;16.17;;;9.40;;
22250;SDS011;59348;52.158;5.588;2022-11-20T01:15:47;17.45;;;9.80;;
22250;SDS011;59348;52.158;5.588;2022-11-20T01:18:14;18.08;;;10.25;;
22250;SDS011;59348;52.158;5.588;2022-11-20T01:20:42;17.48;;;10.05;;
22250;SDS011;59348;52.158;5.588;2022-11-20T01:23:09;16.60;;;9.43;;
22250;SDS011;59348;52.158;5.588;2022-11-20T01:25:37;17.48;;;10.10;;
22250;SDS011;59348;52.158;5.588;2022-11-20T01:28:05;17.00;;;9.40;;
22250;SDS011;59348;52.158;5.588;2022-11-20T01:30:32;18.50;;;9.73;;
22250;SDS011;59348;52.158;5.588;2022-11-20T01:32:59;16.98;;;9.48;;
22250;SDS011;59348;52.158;5.588;2022-11-20T01:35:26;16.60;;;9.57;;
22250;SDS011;59348;52.158;5.588;2022-11-20T01:37:54;18.20;;;9.88;;
22250;SDS011;59348;52.158;5.588;2022-11-20T01:40:21;17.85;;;9.88;;
22250;SDS011;59348;52.158;5.588;2022-11-20T01:42:52;17.48;;;10.25;;
22250;SDS011;59348;52.158;5.588;2022-11-20T01:45:45;16.85;;;10.10;;
22250;SDS011;59348;52.158;5.588;2022-11-20T01:48:17;19.63;;;10.23;;
22250;SDS011;59348;52.158;5.588;2022-11-20T01:50:45;17.45;;;10.65;;
22250;SDS011;59348;52.158;5.588;2022-11-20T01:53:13;18.50;;;10.60;;
22250;SDS011;59348;52.158;5.588;2022-11-20T01:55:43;15.98;;;9.52;;
22250;SDS011;59348;52.158;5.588;2022-11-20T01:58:13;15.82;;;9.93;;
22250;SDS011;59348;52.158;5.588;2022-11-20T02:00:41;18.27;;;9.93;;
22250;SDS011;59348;52.158;5.588;2022-11-20T02:03:09;17.80;;;9.73;;
22250;SDS011;59348;52.158;5.588;2022-11-20T02:05:38;19.48;;;10.60;;
22250;SDS011;59348;52.158;5.588;2022-11-20T02:08:08;22.90;;;10.05;;
22250;SDS011;59348;52.158;5.588;2022-11-20T02:10:36;18.60;;;10.57;;
22250;SDS011;59348;52.158;5.588;2022-11-20T02:13:03;18.45;;;9.93;;
22250;SDS011;59348;52.158;5.588;2022-11-20T02:15:46;16.10;;;9.75;;
22250;SDS011;59348;52.158;5.588;2022-11-20T02:18:13;16.50;;;9.00;;
22250;SDS011;59348;52.158;5.588;2022-11-20T02:20:42;16.73;;;9.55;;
22250;SDS011;59348;52.158;5.588;2022-11-20T02:23:12;17.15;;;9.68;;
22250;SDS011;59348;52.158;5.588;2022-11-20T02:25:41;16.27;;;9.23;;
22250;SDS011;59348;52.158;5.588;2022-11-20T02:28:08;15.73;;;9.77;;
22250;SDS011;59348;52.158;5.588;2022-11-20T02:30:36;16.17;;;9.52;;
22250;SDS011;59348;52.158;5.588;2022-11-20T02:33:04;15.02;;;9.40;;
22250;SDS011;59348;52.158;5.588;2022-11-20T02:38:13;17.98;;;9.43;;
22250;SDS011;59348;52.158;5.588;2022-11-20T02:40:42;17.88;;;9.60;;
22250;SDS011;59348;52.158;5.588;2022-11-20T02:43:09;17.10;;;9.77;;
22250;SDS011;59348;52.158;5.588;2022-11-20T02:45:37;15.90;;;9.45;;
22250;SDS011;59348;52.158;5.588;2022-11-20T02:48:05;21.55;;;10.75;;
22250;SDS011;59348;52.158;5.588;2022-11-20T02:50:36;16.85;;;9.57;;
22250;SDS011;59348;52.158;5.588;2022-11-20T02:53:03;17.73;;;10.40;;
22250;SDS011;59348;52.158;5.588;2022-11-20T02:55:31;18.48;;;10.50;;
22250;SDS011;59348;52.158;5.588;2022-11-20T02:57:59;17.88;;;9.85;;
22250;SDS011;59348;52.158;5.588;2022-11-20T03:00:27;17.50;;;9.18;;
22250;SDS011;59348;52.158;5.588;2022-11-20T03:02:54;15.88;;;9.85;;
22250;SDS011;59348;52.158;5.588;2022-11-20T03:05:21;19.27;;;10.25;;
22250;SDS011;59348;52.158;5.588;2022-11-20T03:07:48;18.52;;;10.02;;
22250;SDS011;59348;52.158;5.588;2022-11-20T03:10:16;15.65;;;9.52;;
22250;SDS011;59348;52.158;5.588;2022-11-20T03:12:43;17.10;;;9.50;;
22250;SDS011;59348;52.158;5.588;2022-11-20T03:15:12;16.30;;;9.55;;
22250;SDS011;59348;52.158;5.588;2022-11-20T03:17:39;15.60;;;9.02;;
22250;SDS011;59348;52.158;5.588;2022-11-20T03:20:07;17.05;;;9.98;;
22250;SDS011;59348;52.158;5.588;2022-11-20T03:22:34;15.90;;;9.13;;
22250;SDS011;59348;52.158;5.588;2022-11-20T03:25:02;20.55;;;9.85;;
22250;SDS011;59348;52.158;5.588;2022-11-20T03:27:31;16.13;;;8.88;;
22250;SDS011;59348;52.158;5.588;2022-11-20T03:29:58;15.30;;;9.23;;
22250;SDS011;59348;52.158;5.588;2022-11-20T03:32:27;16.40;;;9.43;;
22250;SDS011;59348;52.158;5.588;2022-11-20T03:34:54;13.35;;;8.55;;
22250;SDS011;59348;52.158;5.588;2022-11-20T03:37:22;16.45;;;9.52;;
22250;SDS011;59348;52.158;5.588;2022-11-20T03:39:49;17.30;;;9.25;;
22250;SDS011;59348;52.158;5.588;2022-11-20T03:42:16;18.27;;;9.43;;
22250;SDS011;59348;52.158;5.588;2022-11-20T03:44:58;16.33;;;9.48;;
22250;SDS011;59348;52.158;5.588;2022-11-20T03:47:26;19.38;;;9.90;;
22250;SDS011;59348;52.158;5.588;2022-11-20T03:49:54;15.52;;;9.70;;
22250;SDS011;59348;52.158;5.588;2022-11-20T03:52:21;18.23;;;9.23;;
22250;SDS011;59348;52.158;5.588;2022-11-20T03:54:48;21.55;;;9.70;;
22250;SDS011;59348;52.158;5.588;2022-11-20T03:57:15;18.92;;;9.65;;
22250;SDS011;59348;52.158;5.588;2022-11-20T03:59:43;18.13;;;9.40;;
22250;SDS011;59348;52.158;5.588;2022-11-20T04:02:10;18.98;;;9.68;;
22250;SDS011;59348;52.158;5.588;2022-11-20T04:04:39;19.70;;;10.13;;
22250;SDS011;59348;52.158;5.588;2022-11-20T04:07:06;17.15;;;10.02;;
22250;SDS011;59348;52.158;5.588;2022-11-20T04:09:33;16.02;;;9.30;;
22250;SDS011;59348;52.158;5.588;2022-11-20T04:12:00;14.50;;;8.57;;
22250;SDS011;59348;52.158;5.588;2022-11-20T04:14:27;17.13;;;9.35;;
22250;SDS011;59348;52.158;5.588;2022-11-20T04:16:55;17.95;;;9.45;;
22250;SDS011;59348;52.158;5.588;2022-11-20T04:19:22;17.42;;;9.75;;
22250;SDS011;59348;52.158;5.588;2022-11-20T04:21:51;17.77;;;9.45;;
22250;SDS011;59348;52.158;5.588;2022-11-20T04:24:18;18.88;;;9.50;;
22250;SDS011;59348;52.158;5.588;2022-11-20T04:26:45;15.25;;;9.15;;
22250;SDS011;59348;52.158;5.588;2022-11-20T04:29:13;19.08;;;9.68;;
22250;SDS011;59348;52.158;5.588;2022-11-20T04:31:40;17.13;;;9.43;;
22250;SDS011;59348;52.158;5.588;2022-11-20T04:34:07;16.50;;;9.48;;
22250;SDS011;59348;52.158;5.588;2022-11-20T04:36:35;16.75;;;9.63;;
22250;SDS011;59348;52.158;5.588;2022-11-20T04:39:04;18.38;;;9.68;;
22250;SDS011;59348;52.158;5.588;2022-11-20T04:41:32;17.60;;;9.15;;
22250;SDS011;59348;52.158;5.588;2022-11-20T04:44:00;18.80;;;9.82;;
22250;SDS011;59348;52.158;5.588;2022-11-20T04:46:29;18.48;;;9.30;;
22250;SDS011;59348;52.158;5.588;2022-11-20T04:48:56;16.52;;;9.80;;
22250;SDS011;59348;52.158;5.588;2022-11-20T04:51:24;17.05;;;8.60;;
22250;SDS011;59348;52.158;5.588;2022-11-20T04:53:51;23.48;;;10.45;;
22250;SDS011;59348;52.158;5.588;2022-11-20T04:56:20;19.02;;;9.90;;
22250;SDS011;59348;52.158;5.588;2022-11-20T04:58:47;18.63;;;9.23;;
22250;SDS011;59348;52.158;5.588;2022-11-20T05:01:15;21.20;;;10.13;;
22250;SDS011;59348;52.158;5.588;2022-11-20T05:03:43;18.98;;;9.90;;
22250;SDS011;59348;52.158;5.588;2022-11-20T05:06:11;18.83;;;9.30;;
22250;SDS011;59348;52.158;5.588;2022-11-20T05:08:39;16.55;;;9.50;;
22250;SDS011;59348;52.158;5.588;2022-11-20T05:11:07;17.25;;;9.27;;
22250;SDS011;59348;52.158;5.588;2022-11-20T05:13:36;17.13;;;9.73;;
22250;SDS011;59348;52.158;5.588;2022-11-20T05:16:04;17.05;;;10.10;;
22250;SDS011;59348;52.158;5.588;2022-11-20T05:18:32;17.20;;;9.30;;
22250;SDS011;59348;52.158;5.588;2022-11-20T05:21:00;16.35;;;9.13;;
22250;SDS011;59348;52.158;5.588;2022-11-20T05:23:27;16.58;;;9.30;;
22250;SDS011;59348;52.158;5.588;2022-11-20T05:25:56;16.15;;;8.80;;
22250;SDS011;59348;52.158;5.588;2022-11-20T05:28:24;18.63;;;9.60;;
22250;SDS011;59348;52.158;5.588;2022-11-20T05:30:53;17.88;;;9.05;;
22250;SDS011;59348;52.158;5.588;2022-11-20T05:33:20;16.38;;;9.75;;
22250;SDS011;59348;52.158;5.588;2022-11-20T05:35:48;18.25;;;9.85;;
22250;SDS011;59348;52.158;5.588;2022-11-20T05:38:15;17.25;;;9.77;;
22250;SDS011;59348;52.158;5.588;2022-11-20T05:40:42;24.60;;;10.15;;
22250;SDS011;59348;52.158;5.588;2022-11-20T05:43:09;16.42;;;9.68;;
22250;SDS011;59348;52.158;5.588;2022-11-20T05:45:37;17.55;;;9.55;;
22250;SDS011;59348;52.158;5.588;2022-11-20T05:48:05;19.55;;;10.02;;
22250;SDS011;59348;52.158;5.588;2022-11-20T05:50:33;20.38;;;10.50;;
22250;SDS011;59348;52.158;5.588;2022-11-20T05:53:00;18.73;;;10.00;;
22250;SDS011;59348;52.158;5.588;2022-11-20T05:55:27;20.73;;;10.55;;
22250;SDS011;59348;52.158;5.588;2022-11-20T05:57:55;20.85;;;10.48;;
22250;SDS011;59348;52.158;5.588;2022-11-20T06:00:22;20.85;;;10.30;;
22250;SDS011;59348;52.158;5.588;2022-11-20T06:02:49;19.80;;;9.48;;
22250;SDS011;59348;52.158;5.588;2022-11-20T06:05:18;28.23;;;10.25;;
22250;SDS011;59348;52.158;5.588;2022-11-20T06:07:45;26.52;;;10.38;;
22250;SDS011;59348;52.158;5.588;2022-11-20T06:10:12;21.52;;;9.88;;
22250;SDS011;59348;52.158;5.588;2022-11-20T06:12:40;20.05;;;10.05;;
22250;SDS011;59348;52.158;5.588;2022-11-20T06:15:07;21.42;;;10.07;;
22250;SDS011;59348;52.158;5.588;2022-11-20T06:17:35;22.73;;;10.00;;
22250;SDS011;59348;52.158;5.588;2022-11-20T06:20:02;19.52;;;9.63;;
22250;SDS011;59348;52.158;5.588;2022-11-20T06:22:31;18.42;;;9.55;;
22250;SDS011;59348;52.158;5.588;2022-11-20T06:24:59;19.52;;;9.10;;
22250;SDS011;59348;52.158;5.588;2022-11-20T06:27:26;21.38;;;9.35;;
22250;SDS011;59348;52.158;5.588;2022-11-20T06:29:54;21.55;;;9.75;;
22250;SDS011;59348;52.158;5.588;2022-11-20T06:32:21;18.40;;;9.00;;
22250;SDS011;59348;52.158;5.588;2022-11-20T06:34:48;20.17;;;9.20;;
22250;SDS011;59348;52.158;5.588;2022-11-20T06:37:16;21.98;;;9.45;;
22250;SDS011;59348;52.158;5.588;2022-11-20T06:39:44;14.75;;;8.65;;
22250;SDS011;59348;52.158;5.588;2022-11-20T06:42:11;17.85;;;9.48;;
22250;SDS011;59348;52.158;5.588;2022-11-20T06:44:39;16.98;;;9.25;;
22250;SDS011;59348;52.158;5.588;2022-11-20T06:47:06;19.75;;;9.85;;
22250;SDS011;59348;52.158;5.588;2022-11-20T06:49:33;19.40;;;9.55;;
22250;SDS011;59348;52.158;5.588;2022-11-20T06:52:02;25.90;;;10.77;;
22250;SDS011;59348;52.158;5.588;2022-11-20T06:54:29;29.40;;;11.38;;
22250;SDS011;59348;52.158;5.588;2022-11-20T06:56:58;39.15;;;12.50;;
22250;SDS011;59348;52.158;5.588;2022-11-20T06:59:25;23.25;;;10.80;;
22250;SDS011;59348;52.158;5.588;2022-11-20T07:01:52;22.35;;;10.50;;
22250;SDS011;59348;52.158;5.588;2022-11-20T07:04:20;21.50;;;10.85;;
22250;SDS011;59348;52.158;5.588;2022-11-20T07:06:47;21.63;;;10.82;;
22250;SDS011;59348;52.158;5.588;2022-11-20T07:09:15;20.50;;;10.20;;
22250;SDS011;59348;52.158;5.588;2022-11-20T07:11:42;21.58;;;10.68;;
22250;SDS011;59348;52.158;5.588;2022-11-20T07:14:11;37.65;;;14.57;;
22250;SDS011;59348;52.158;5.588;2022-11-20T07:16:38;39.53;;;17.80;;
22250;SDS011;59348;52.158;5.588;2022-11-20T07:19:05;24.17;;;12.60;;
22250;SDS011;59348;52.158;5.588;2022-11-20T07:21:32;28.98;;;12.27;;
22250;SDS011;59348;52.158;5.588;2022-11-20T07:24:00;24.73;;;11.02;;
22250;SDS011;59348;52.158;5.588;2022-11-20T07:26:27;24.77;;;10.52;;
22250;SDS011;59348;52.158;5.588;2022-11-20T07:28:55;18.92;;;10.65;;
22250;SDS011;59348;52.158;5.588;2022-11-20T07:31:23;24.83;;;12.63;;
22250;SDS011;59348;52.158;5.588;2022-11-20T07:33:51;27.75;;;11.63;;
22250;SDS011;59348;52.158;5.588;2022-11-20T07:36:18;27.10;;;12.30;;
22250;SDS011;59348;52.158;5.588;2022-11-20T07:38:45;27.98;;;11.75;;
22250;SDS011;59348;52.158;5.588;2022-11-20T07:41:12;25.05;;;11.82;;
22250;SDS011;59348;52.158;5.588;2022-11-20T07:43:40;23.00;;;11.43;;
22250;SDS011;59348;52.158;5.588;2022-11-20T07:46:07;19.73;;;10.50;;
22250;SDS011;59348;52.158;5.588;2022-11-20T07:48:36;22.08;;;11.88;;
22250;SDS011;59348;52.158;5.588;2022-11-20T07:51:03;22.13;;;11.30;;
22250;SDS011;59348;52.158;5.588;2022-11-20T07:53:30;23.08;;;10.73;;
22250;SDS011;59348;52.158;5.588;2022-11-20T07:55:59;23.70;;;12.57;;
22250;SDS011;59348;52.158;5.588;2022-11-20T07:58:28;24.05;;;12.18;;
22250;SDS011;59348;52.158;5.588;2022-11-20T08:00:57;21.88;;;11.55;;
22250;SDS011;59348;52.158;5.588;2022-11-20T08:03:25;21.92;;;11.07;;
22250;SDS011;59348;52.158;5.588;2022-11-20T08:05:53;24.85;;;13.10;;
22250;SDS011;59348;52.158;5.588;2022-11-20T08:08:21;33.20;;;13.70;;
22250;SDS011;59348;52.158;5.588;2022-11-20T08:10:48;41.10;;;18.70;;
22250;SDS011;59348;52.158;5.588;2022-11-20T08:13:15;42.70;;;19.80;;
22250;SDS011;59348;52.158;5.588;2022-11-20T08:15:56;60.88;;;25.10;;
22250;SDS011;59348;52.158;5.588;2022-11-20T08:18:24;45.55;;;19.67;;
22250;SDS011;59348;52.158;5.588;2022-11-20T08:20:51;41.95;;;19.38;;
22250;SDS011;59348;52.158;5.588;2022-11-20T08:23:20;43.72;;;19.15;;
22250;SDS011;59348;52.158;5.588;2022-11-20T08:25:48;32.35;;;16.33;;
22250;SDS011;59348;52.158;5.588;2022-11-20T08:28:16;26.83;;;14.23;;
22250;SDS011;59348;52.158;5.588;2022-11-20T08:30:43;23.75;;;13.82;;
22250;SDS011;59348;52.158;5.588;2022-11-20T08:33:11;26.20;;;15.02;;
22250;SDS011;59348;52.158;5.588;2022-11-20T08:35:38;26.08;;;14.45;;
22250;SDS011;59348;52.158;5.588;2022-11-20T08:38:06;25.08;;;13.95;;
22250;SDS011;59348;52.158;5.588;2022-11-20T08:40:34;23.88;;;13.65;;
22250;SDS011;59348;52.158;5.588;2022-11-20T08:43:02;23.42;;;13.23;;
22250;SDS011;59348;52.158;5.588;2022-11-20T08:45:29;25.85;;;13.50;;
22250;SDS011;59348;52.158;5.588;2022-11-20T08:47:59;22.35;;;13.15;;
22250;SDS011;59348;52.158;5.588;2022-11-20T08:50:27;22.98;;;13.27;;
22250;SDS011;59348;52.158;5.588;2022-11-20T08:53:01;26.70;;;14.15;;
22250;SDS011;59348;52.158;5.588;2022-11-20T08:55:29;24.98;;;14.63;;
22250;SDS011;59348;52.158;5.588;2022-11-20T08:57:57;23.20;;;14.20;;
22250;SDS011;59348;52.158;5.588;2022-11-20T09:00:24;26.05;;;14.13;;
22250;SDS011;59348;52.158;5.588;2022-11-20T09:02:52;23.98;;;14.68;;
22250;SDS011;59348;52.158;5.588;2022-11-20T09:05:19;25.17;;;14.57;;
22250;SDS011;59348;52.158;5.588;2022-11-20T09:07:46;27.33;;;15.63;;
22250;SDS011;59348;52.158;5.588;2022-11-20T09:10:14;27.52;;;15.52;;
22250;SDS011;59348;52.158;5.588;2022-11-20T09:12:41;25.67;;;15.50;;
22250;SDS011;59348;52.158;5.588;2022-11-20T09:15:10;28.98;;;16.23;;
22250;SDS011;59348;52.158;5.588;2022-11-20T09:17:37;26.38;;;16.00;;
22250;SDS011;59348;52.158;5.588;2022-11-20T09:20:04;27.63;;;16.02;;
22250;SDS011;59348;52.158;5.588;2022-11-20T09:22:32;30.00;;;16.98;;
22250;SDS011;59348;52.158;5.588;2022-11-20T09:24:59;26.17;;;15.55;;
22250;SDS011;59348;52.158;5.588;2022-11-20T09:27:27;28.27;;;16.50;;
22250;SDS011;59348;52.158;5.588;2022-11-20T09:29:54;30.65;;;17.73;;
22250;SDS011;59348;52.158;5.588;2022-11-20T09:32:23;29.38;;;17.65;;
22250;SDS011;59348;52.158;5.588;2022-11-20T09:34:50;33.55;;;19.02;;
22250;SDS011;59348;52.158;5.588;2022-11-20T09:37:17;28.55;;;16.95;;
22250;SDS011;59348;52.158;5.588;2022-11-20T09:39:45;30.13;;;17.90;;
22250;SDS011;59348;52.158;5.588;2022-11-20T09:42:15;31.13;;;17.67;;
22250;SDS011;59348;52.158;5.588;2022-11-20T09:44:49;27.50;;;17.48;;
22250;SDS011;59348;52.158;5.588;2022-11-20T09:47:25;29.38;;;17.08;;
22250;SDS011;59348;52.158;5.588;2022-11-20T09:49:58;27.85;;;16.92;;
22250;SDS011;59348;52.158;5.588;2022-11-20T09:52:29;26.85;;;17.30;;
22250;SDS011;59348;52.158;5.588;2022-11-20T09:55:00;30.42;;;16.23;;
22250;SDS011;59348;52.158;5.588;2022-11-20T09:57:30;29.17;;;17.33;;
22250;SDS011;59348;52.158;5.588;2022-11-20T10:00:00;30.35;;;17.23;;
22250;SDS011;59348;52.158;5.588;2022-11-20T10:02:29;28.05;;;17.58;;
22250;SDS011;59348;52.158;5.588;2022-11-20T10:04:58;27.13;;;16.95;;
22250;SDS011;59348;52.158;5.588;2022-11-20T10:07:29;30.42;;;17.02;;
22250;SDS011;59348;52.158;5.588;2022-11-20T10:09:57;26.42;;;16.65;;
22250;SDS011;59348;52.158;5.588;2022-11-20T10:12:27;27.10;;;16.85;;
22250;SDS011;59348;52.158;5.588;2022-11-20T10:15:01;30.25;;;16.90;;
22250;SDS011;59348;52.158;5.588;2022-11-20T10:17:42;29.23;;;16.65;;
22250;SDS011;59348;52.158;5.588;2022-11-20T10:20:15;29.92;;;16.92;;
22250;SDS011;59348;52.158;5.588;2022-11-20T10:22:47;28.63;;;17.65;;
22250;SDS011;59348;52.158;5.588;2022-11-20T10:25:17;31.27;;;17.15;;
22250;SDS011;59348;52.158;5.588;2022-11-20T10:27:50;27.38;;;17.83;;
22250;SDS011;59348;52.158;5.588;2022-11-20T10:30:21;27.08;;;17.65;;
22250;SDS011;59348;52.158;5.588;2022-11-20T10:32:52;31.58;;;18.25;;
22250;SDS011;59348;52.158;5.588;2022-11-20T10:35:21;34.58;;;18.75;;
22250;SDS011;59348;52.158;5.588;2022-11-20T10:37:51;30.02;;;18.35;;
22250;SDS011;59348;52.158;5.588;2022-11-20T10:40:23;32.83;;;18.35;;
22250;SDS011;59348;52.158;5.588;2022-11-20T10:42:53;29.40;;;17.95;;
22250;SDS011;59348;52.158;5.588;2022-11-20T10:45:29;34.35;;;19.77;;
22250;SDS011;59348;52.158;5.588;2022-11-20T10:48:05;29.90;;;18.63;;
22250;SDS011;59348;52.158;5.588;2022-11-20T10:50:35;30.85;;;19.05;;
22250;SDS011;59348;52.158;5.588;2022-11-20T10:53:05;30.95;;;20.60;;
22250;SDS011;59348;52.158;5.588;2022-11-20T10:55:38;33.28;;;19.92;;
22250;SDS011;59348;52.158;5.588;2022-11-20T10:58:08;32.83;;;20.80;;
22250;SDS011;59348;52.158;5.588;2022-11-20T11:00:37;34.42;;;20.92;;
22250;SDS011;59348;52.158;5.588;2022-11-20T11:03:11;34.67;;;20.48;;
22250;SDS011;59348;52.158;5.588;2022-11-20T11:05:43;34.75;;;21.27;;
22250;SDS011;59348;52.158;5.588;2022-11-20T11:08:14;34.65;;;21.20;;
22250;SDS011;59348;52.158;5.588;2022-11-20T11:10:43;35.05;;;21.10;;
22250;SDS011;59348;52.158;5.588;2022-11-20T11:13:21;35.88;;;21.20;;
22250;SDS011;59348;52.158;5.588;2022-11-20T11:15:48;38.65;;;21.65;;
22250;SDS011;59348;52.158;5.588;2022-11-20T11:18:25;34.03;;;20.90;;
22250;SDS011;59348;52.158;5.588;2022-11-20T11:20:53;34.50;;;20.65;;
22250;SDS011;59348;52.158;5.588;2022-11-20T11:23:26;36.05;;;22.00;;
22250;SDS011;59348;52.158;5.588;2022-11-20T11:25:56;36.70;;;21.20;;
22250;SDS011;59348;52.158;5.588;2022-11-20T11:28:25;32.60;;;21.52;;
22250;SDS011;59348;52.158;5.588;2022-11-20T11:30:53;35.35;;;21.77;;
22250;SDS011;59348;52.158;5.588;2022-11-20T11:33:21;35.60;;;21.63;;
22250;SDS011;59348;52.158;5.588;2022-11-20T11:35:50;37.97;;;22.67;;
22250;SDS011;59348;52.158;5.588;2022-11-20T11:38:19;35.17;;;21.42;;
22250;SDS011;59348;52.158;5.588;2022-11-20T11:40:48;36.95;;;21.98;;
22250;SDS011;59348;52.158;5.588;2022-11-20T11:43:17;34.22;;;20.48;;
22250;SDS011;59348;52.158;5.588;2022-11-20T11:45:59;36.30;;;21.35;;
22250;SDS011;59348;52.158;5.588;2022-11-20T11:48:27;36.65;;;22.77;;
22250;SDS011;59348;52.158;5.588;2022-11-20T11:50:56;36.25;;;21.85;;
22250;SDS011;59348;52.158;5.588;2022-11-20T11:53:23;34.47;;;22.08;;
22250;SDS011;59348;52.158;5.588;2022-11-20T11:55:54;33.70;;;21.48;;
22250;SDS011;59348;52.158;5.588;2022-11-20T11:58:30;34.58;;;22.92;;
22250;SDS011;59348;52.158;5.588;2022-11-20T12:01:02;35.17;;;21.85;;
22250;SDS011;59348;52.158;5.588;2022-11-20T12:03:34;34.88;;;21.13;;
22250;SDS011;59348;52.158;5.588;2022-11-20T12:06:03;36.47;;;22.38;;
22250;SDS011;59348;52.158;5.588;2022-11-20T12:08:41;38.30;;;22.80;;
22250;SDS011;59348;52.158;5.588;2022-11-20T12:11:11;35.30;;;22.23;;
22250;SDS011;59348;52.158;5.588;2022-11-20T12:13:41;34.95;;;22.27;;
22250;SDS011;59348;52.158;5.588;2022-11-20T12:16:12;37.63;;;23.40;;
22250;SDS011;59348;52.158;5.588;2022-11-20T12:18:40;34.60;;;22.55;;
22250;SDS011;59348;52.158;5.588;2022-11-20T12:21:17;36.42;;;23.10;;
22250;SDS011;59348;52.158;5.588;2022-11-20T12:23:49;39.45;;;23.58;;
22250;SDS011;59348;52.158;5.588;2022-11-20T12:26:22;37.50;;;22.45;;
22250;SDS011;59348;52.158;5.588;2022-11-20T12:28:57;37.63;;;23.23;;
22250;SDS011;59348;52.158;5.588;2022-11-20T12:31:34;37.63;;;23.08;;
22250;SDS011;59348;52.158;5.588;2022-11-20T12:34:09;36.83;;;22.77;;
22250;SDS011;59348;52.158;5.588;2022-11-20T12:36:43;36.80;;;21.98;;
22250;SDS011;59348;52.158;5.588;2022-11-20T12:39:17;36.22;;;22.33;;
22250;SDS011;59348;52.158;5.588;2022-11-20T12:41:50;38.03;;;23.00;;
22250;SDS011;59348;52.158;5.588;2022-11-20T12:44:36;40.78;;;22.92;;
22250;SDS011;59348;52.158;5.588;2022-11-20T12:47:22;34.75;;;22.08;;
22250;SDS011;59348;52.158;5.588;2022-11-20T12:49:52;36.25;;;23.30;;
22250;SDS011;59348;52.158;5.588;2022-11-20T12:52:32;41.38;;;22.88;;
22250;SDS011;59348;52.158;5.588;2022-11-20T12:55:11;45.63;;;23.58;;
22250;SDS011;59348;52.158;5.588;2022-11-20T12:57:42;34.75;;;22.00;;
22250;SDS011;59348;52.158;5.588;2022-11-20T13:00:14;35.20;;;22.75;;
22250;SDS011;59348;52.158;5.588;2022-11-20T13:02:52;36.15;;;21.85;;
22250;SDS011;59348;52.158;5.588;2022-11-20T13:05:27;34.50;;;21.80;;
22250;SDS011;59348;52.158;5.588;2022-11-20T13:07:59;37.00;;;22.35;;
22250;SDS011;59348;52.158;5.588;2022-11-20T13:10:31;36.13;;;22.27;;
22250;SDS011;59348;52.158;5.588;2022-11-20T13:13:01;35.67;;;22.23;;
22250;SDS011;59348;52.158;5.588;2022-11-20T13:15:35;36.60;;;21.52;;
22250;SDS011;59348;52.158;5.588;2022-11-20T13:18:04;36.42;;;22.10;;
22250;SDS011;59348;52.158;5.588;2022-11-20T13:20:32;36.78;;;22.55;;
22250;SDS011;59348;52.158;5.588;2022-11-20T13:23:01;35.78;;;21.17;;
22250;SDS011;59348;52.158;5.588;2022-11-20T13:25:29;33.92;;;22.73;;
22250;SDS011;59348;52.158;5.588;2022-11-20T13:27:57;36.97;;;22.35;;
22250;SDS011;59348;52.158;5.588;2022-11-20T13:30:25;35.97;;;22.95;;
22250;SDS011;59348;52.158;5.588;2022-11-20T13:32:53;39.40;;;22.00;;
22250;SDS011;59348;52.158;5.588;2022-11-20T13:35:24;38.60;;;23.00;;
22250;SDS011;59348;52.158;5.588;2022-11-20T13:37:59;38.42;;;23.15;;
22250;SDS011;59348;52.158;5.588;2022-11-20T13:40:28;36.08;;;23.35;;
22250;SDS011;59348;52.158;5.588;2022-11-20T13:42:56;38.78;;;23.23;;
22250;SDS011;59348;52.158;5.588;2022-11-20T13:45:25;43.75;;;24.75;;
22250;SDS011;59348;52.158;5.588;2022-11-20T13:47:53;38.42;;;23.63;;
22250;SDS011;59348;52.158;5.588;2022-11-20T13:50:21;38.88;;;24.20;;
22250;SDS011;59348;52.158;5.588;2022-11-20T13:52:55;38.47;;;24.25;;
22250;SDS011;59348;52.158;5.588;2022-11-20T13:55:29;39.05;;;25.27;;
22250;SDS011;59348;52.158;5.588;2022-11-20T13:58:03;37.75;;;25.05;;
22250;SDS011;59348;52.158;5.588;2022-11-20T14:00:32;41.72;;;25.33;;
22250;SDS011;59348;52.158;5.588;2022-11-20T14:03:01;38.80;;;24.38;;
22250;SDS011;59348;52.158;5.588;2022-11-20T14:05:35;40.50;;;25.58;;
22250;SDS011;59348;52.158;5.588;2022-11-20T14:08:03;39.10;;;24.73;;
22250;SDS011;59348;52.158;5.588;2022-11-20T14:10:32;42.03;;;26.27;;
22250;SDS011;59348;52.158;5.588;2022-11-20T14:13:09;41.10;;;25.90;;
22250;SDS011;59348;52.158;5.588;2022-11-20T14:15:37;39.78;;;24.90;;
22250;SDS011;59348;52.158;5.588;2022-11-20T14:18:11;38.80;;;24.55;;
22250;SDS011;59348;52.158;5.588;2022-11-20T14:20:39;42.30;;;25.63;;
22250;SDS011;59348;52.158;5.588;2022-11-20T14:23:08;40.95;;;25.40;;
22250;SDS011;59348;52.158;5.588;2022-11-20T14:25:37;42.53;;;26.30;;
22250;SDS011;59348;52.158;5.588;2022-11-20T14:28:10;43.80;;;25.95;;
22250;SDS011;59348;52.158;5.588;2022-11-20T14:30:40;48.80;;;27.77;;
22250;SDS011;59348;52.158;5.588;2022-11-20T14:33:10;44.80;;;26.92;;
22250;SDS011;59348;52.158;5.588;2022-11-20T14:35:40;46.17;;;28.63;;
22250;SDS011;59348;52.158;5.588;2022-11-20T14:38:09;44.20;;;25.92;;
22250;SDS011;59348;52.158;5.588;2022-11-20T14:40:40;44.65;;;27.13;;